createdAt,value
2023-04-20T00:00:51.318Z,1015.23
2023-04-20T00:01:51.352Z,1015.19
2023-04-20T00:02:51.492Z,1015.20
2023-04-20T00:03:51.534Z,1015.20
2023-04-20T00:04:51.398Z,1015.19
2023-04-20T00:05:51.377Z,1015.21
2023-04-20T00:06:51.385Z,1015.16
2023-04-20T00:07:51.395Z,1015.18
2023-04-20T00:08:51.408Z,1015.17
2023-04-20T00:09:51.428Z,1015.17
2023-04-20T00:10:51.434Z,1015.17
2023-04-20T00:11:51.451Z,1015.17
2023-04-20T00:12:51.459Z,1015.19
2023-04-20T00:13:51.467Z,1015.18
2023-04-20T00:14:51.485Z,1015.18
2023-04-20T00:15:51.495Z,1015.22
2023-04-20T00:16:51.534Z,1015.18
2023-04-20T00:17:51.585Z,1015.16
2023-04-20T00:18:51.535Z,1015.18
2023-04-20T00:19:51.534Z,1015.22
2023-04-20T00:20:51.564Z,1015.15
2023-04-20T00:21:51.560Z,1015.16
2023-04-20T00:22:51.569Z,1015.18
2023-04-20T00:23:51.581Z,1015.18
2023-04-20T00:24:51.594Z,1015.17
2023-04-20T00:25:51.609Z,1015.16
2023-04-20T00:26:51.619Z,1015.19
2023-04-20T00:27:51.630Z,1015.16
2023-04-20T00:28:51.645Z,1015.12
2023-04-20T00:29:51.651Z,1015.12
2023-04-20T00:30:51.700Z,1015.14
2023-04-20T00:31:51.674Z,1015.10
2023-04-20T00:32:51.712Z,1015.13
2023-04-20T00:33:51.701Z,1015.09
2023-04-20T00:34:51.708Z,1015.11
2023-04-20T00:35:51.715Z,1015.13
2023-04-20T00:36:51.751Z,1015.17
2023-04-20T00:37:51.740Z,1015.18
2023-04-20T00:38:51.762Z,1015.13
2023-04-20T00:39:51.769Z,1015.17
2023-04-20T00:40:51.777Z,1015.14
2023-04-20T00:41:51.790Z,1015.10
2023-04-20T00:42:51.827Z,1015.16
2023-04-20T00:43:51.815Z,1015.10
2023-04-20T00:44:51.822Z,1015.10
2023-04-20T00:45:51.860Z,1015.11
2023-04-20T00:46:51.845Z,1015.07
2023-04-20T00:47:51.908Z,1015.05
2023-04-20T00:48:51.899Z,1015.04
2023-04-20T00:49:51.881Z,1015.05
2023-04-20T00:50:51.887Z,1015.05
2023-04-20T00:51:51.903Z,1015.03
2023-04-20T00:52:51.923Z,1015.09
2023-04-20T00:53:51.929Z,1015.04
2023-04-20T00:54:51.939Z,1015.04
2023-04-20T00:55:51.949Z,1015.00
2023-04-20T00:56:51.966Z,1015.02
2023-04-20T00:57:51.974Z,1015.02
2023-04-20T00:58:51.992Z,1015.03
2023-04-20T00:59:51.997Z,1014.99
2023-04-20T01:00:52.004Z,1014.98
2023-04-20T01:01:52.097Z,1014.97
2023-04-20T01:02:52.089Z,1014.94
2023-04-20T01:03:52.165Z,1014.93
2023-04-20T01:04:52.061Z,1014.93
2023-04-20T01:05:52.069Z,1014.89
2023-04-20T01:06:52.078Z,1014.91
2023-04-20T01:07:52.092Z,1014.96
2023-04-20T01:08:52.127Z,1014.93
2023-04-20T01:09:52.113Z,1014.91
2023-04-20T01:10:52.126Z,1014.97
2023-04-20T01:11:52.137Z,1014.93
2023-04-20T01:12:52.148Z,1015.00
2023-04-20T01:13:52.159Z,1014.98
2023-04-20T01:14:52.169Z,1015.03
2023-04-20T01:15:52.217Z,1014.98
2023-04-20T01:16:52.203Z,1014.99
2023-04-20T01:17:52.312Z,1014.99
2023-04-20T01:18:52.216Z,1014.95
2023-04-20T01:19:52.227Z,1014.93
2023-04-20T01:20:52.239Z,1014.91
2023-04-20T01:21:52.249Z,1014.90
2023-04-20T01:22:52.263Z,1014.86
2023-04-20T01:23:52.297Z,1014.85
2023-04-20T01:24:52.286Z,1014.88
2023-04-20T01:25:52.297Z,1014.90
2023-04-20T01:26:52.308Z,1014.90
2023-04-20T01:27:52.323Z,1014.85
2023-04-20T01:28:52.332Z,1014.90
2023-04-20T01:29:52.349Z,1014.89
2023-04-20T01:30:52.352Z,1014.90
2023-04-20T01:31:52.474Z,1014.92
2023-04-20T01:32:52.464Z,1014.89
2023-04-20T01:33:52.405Z,1014.91
2023-04-20T01:34:52.399Z,1014.92
2023-04-20T01:35:52.408Z,1014.92
2023-04-20T01:36:52.420Z,1014.89
2023-04-20T01:37:52.432Z,1014.89
2023-04-20T01:38:52.462Z,1014.91
2023-04-20T01:39:52.497Z,1014.92
2023-04-20T01:40:52.476Z,1014.87
2023-04-20T01:41:52.474Z,1014.88
2023-04-20T01:42:52.509Z,1014.88
2023-04-20T01:43:52.517Z,1014.86
2023-04-20T01:44:52.509Z,1014.86
2023-04-20T01:45:52.527Z,1014.87
2023-04-20T01:46:52.587Z,1014.86
2023-04-20T01:47:52.593Z,1014.85
2023-04-20T01:48:52.556Z,1014.85
2023-04-20T01:49:52.568Z,1014.83
2023-04-20T01:50:52.600Z,1014.80
2023-04-20T01:51:52.589Z,1014.77
2023-04-20T01:52:52.600Z,1014.82
2023-04-20T01:53:52.618Z,1014.83
2023-04-20T01:54:52.632Z,1014.88
2023-04-20T01:55:52.653Z,1014.86
2023-04-20T01:56:52.660Z,1014.86
2023-04-20T01:57:52.670Z,1014.86
2023-04-20T01:58:52.667Z,1014.89
2023-04-20T01:59:52.675Z,1014.89
2023-04-20T02:00:52.783Z,1014.85
2023-04-20T02:01:52.738Z,1014.87
2023-04-20T02:02:52.883Z,1014.85
2023-04-20T02:03:53.005Z,1014.89
2023-04-20T02:04:52.740Z,1014.86
2023-04-20T02:05:52.744Z,1014.85
2023-04-20T02:06:52.754Z,1014.87
2023-04-20T02:07:52.770Z,1014.87
2023-04-20T02:08:52.782Z,1014.86
2023-04-20T02:09:52.789Z,1014.86
2023-04-20T02:10:52.798Z,1014.87
2023-04-20T02:11:52.806Z,1014.86
2023-04-20T02:12:52.818Z,1014.87
2023-04-20T02:13:52.829Z,1014.87
2023-04-20T02:14:52.836Z,1014.90
2023-04-20T02:15:52.857Z,1014.90
2023-04-20T02:16:52.885Z,1014.87
2023-04-20T02:17:53.013Z,1014.87
2023-04-20T02:18:52.889Z,1014.91
2023-04-20T02:19:52.901Z,1014.95
2023-04-20T02:20:52.916Z,1014.95
2023-04-20T02:21:52.919Z,1014.95
2023-04-20T02:22:52.929Z,1014.96
2023-04-20T02:23:52.940Z,1014.93
2023-04-20T02:24:52.963Z,1014.95
2023-04-20T02:25:52.973Z,1014.98
2023-04-20T02:26:52.972Z,1015.00
2023-04-20T02:27:52.979Z,1014.99
2023-04-20T02:28:52.993Z,1015.05
2023-04-20T02:29:53.006Z,1015.02
2023-04-20T02:30:53.051Z,1014.99
2023-04-20T02:31:53.025Z,1015.01
2023-04-20T02:32:53.118Z,1015.00
2023-04-20T02:33:53.048Z,1014.98
2023-04-20T02:34:53.063Z,1014.95
2023-04-20T02:35:53.073Z,1014.96
2023-04-20T02:36:53.086Z,1014.96
2023-04-20T02:37:53.097Z,1014.90
2023-04-20T02:38:53.106Z,1014.97
2023-04-20T02:39:53.127Z,1014.97
2023-04-20T02:40:53.128Z,1014.96
2023-04-20T02:41:53.137Z,1014.96
2023-04-20T02:42:53.148Z,1014.97
2023-04-20T02:43:53.158Z,1014.99
2023-04-20T02:44:53.175Z,1014.95
2023-04-20T02:45:53.184Z,1014.92
2023-04-20T02:46:53.265Z,1014.90
2023-04-20T02:47:53.244Z,1014.96
2023-04-20T02:48:53.230Z,1014.97
2023-04-20T02:49:53.236Z,1014.93
2023-04-20T02:50:53.243Z,1014.94
2023-04-20T02:51:53.256Z,1014.92
2023-04-20T02:52:53.270Z,1014.92
2023-04-20T02:53:53.280Z,1014.96
2023-04-20T02:54:53.298Z,1014.96
2023-04-20T02:55:53.311Z,1014.98
2023-04-20T02:56:53.750Z,1014.98
2023-04-20T02:57:53.325Z,1014.96
2023-04-20T02:58:53.335Z,1014.98
2023-04-20T02:59:53.350Z,1014.98
2023-04-20T03:00:53.361Z,1014.96
2023-04-20T03:01:53.408Z,1014.98
2023-04-20T03:02:53.489Z,1014.96
2023-04-20T03:03:53.604Z,1014.97
2023-04-20T03:04:53.557Z,1014.98
2023-04-20T03:05:53.421Z,1014.99
2023-04-20T03:06:53.430Z,1015.00
2023-04-20T03:07:53.455Z,1014.99
2023-04-20T03:08:53.454Z,1014.98
2023-04-20T03:09:53.466Z,1014.97
2023-04-20T03:10:53.479Z,1014.96
2023-04-20T03:11:53.492Z,1014.97
2023-04-20T03:12:53.504Z,1014.95
2023-04-20T03:13:53.511Z,1014.99
2023-04-20T03:14:53.523Z,1014.94
2023-04-20T03:15:53.544Z,1015.01
2023-04-20T03:16:53.569Z,1014.98
2023-04-20T03:17:53.590Z,1014.95
2023-04-20T03:18:53.582Z,1014.91
2023-04-20T03:19:53.585Z,1014.94
2023-04-20T03:20:53.608Z,1014.93
2023-04-20T03:21:53.613Z,1014.95
2023-04-20T03:22:53.616Z,1014.94
2023-04-20T03:23:53.624Z,1014.97
2023-04-20T03:24:53.783Z,1014.97
2023-04-20T03:25:53.657Z,1014.96
2023-04-20T03:26:53.661Z,1014.98
2023-04-20T03:27:53.676Z,1014.98
2023-04-20T03:28:53.689Z,1014.99
2023-04-20T03:29:53.694Z,1015.03
2023-04-20T03:30:53.706Z,1015.05
2023-04-20T03:31:53.805Z,1015.04
2023-04-20T03:32:53.799Z,1015.09
2023-04-20T03:33:53.744Z,1015.09
2023-04-20T03:34:53.753Z,1015.08
2023-04-20T03:35:53.766Z,1015.07
2023-04-20T03:36:53.777Z,1015.04
2023-04-20T03:37:53.788Z,1015.02
2023-04-20T03:38:53.796Z,1015.08
2023-04-20T03:39:53.818Z,1015.10
2023-04-20T03:40:53.828Z,1015.07
2023-04-20T03:41:53.836Z,1015.08
2023-04-20T03:42:53.850Z,1015.07
2023-04-20T03:43:53.865Z,1015.07
2023-04-20T03:44:53.867Z,1015.09
2023-04-20T03:45:53.947Z,1015.09
2023-04-20T03:46:53.893Z,1015.12
2023-04-20T03:47:53.931Z,1015.10
2023-04-20T03:48:53.914Z,1015.13
2023-04-20T03:49:53.936Z,1015.10
2023-04-20T03:50:53.941Z,1015.10
2023-04-20T03:51:53.956Z,1015.12
2023-04-20T03:52:53.965Z,1015.06
2023-04-20T03:53:53.989Z,1015.04
2023-04-20T03:54:54.015Z,1015.06
2023-04-20T03:55:54.003Z,1015.06
2023-04-20T03:56:54.026Z,1015.06
2023-04-20T03:57:54.044Z,1015.00
2023-04-20T03:58:54.035Z,1015.03
2023-04-20T03:59:54.053Z,1015.03
2023-04-20T04:00:54.061Z,1015.03
2023-04-20T04:01:54.096Z,1015.03
2023-04-20T04:02:54.268Z,1015.06
2023-04-20T04:03:54.317Z,1015.03
2023-04-20T04:04:54.212Z,1015.07
2023-04-20T04:05:54.125Z,1015.08
2023-04-20T04:06:54.124Z,1015.07
2023-04-20T04:07:54.142Z,1015.06
2023-04-20T04:08:54.164Z,1015.10
2023-04-20T04:09:54.162Z,1015.07
2023-04-20T04:10:54.178Z,1015.09
2023-04-20T04:11:54.191Z,1015.10
2023-04-20T04:12:54.199Z,1015.09
2023-04-20T04:13:54.211Z,1015.15
2023-04-20T04:14:54.223Z,1015.13
2023-04-20T04:15:54.233Z,1015.15
2023-04-20T04:16:54.285Z,1015.11
2023-04-20T04:17:54.307Z,1015.12
2023-04-20T04:18:54.275Z,1015.14
2023-04-20T04:19:54.283Z,1015.22
2023-04-20T04:20:54.297Z,1015.23
2023-04-20T04:21:54.302Z,1015.26
2023-04-20T04:22:54.323Z,1015.23
2023-04-20T04:23:54.331Z,1015.29
2023-04-20T04:24:54.344Z,1015.26
2023-04-20T04:25:54.364Z,1015.32
2023-04-20T04:26:54.366Z,1015.30
2023-04-20T04:27:54.377Z,1015.28
2023-04-20T04:28:54.387Z,1015.29
2023-04-20T04:29:54.400Z,1015.35
2023-04-20T04:30:54.424Z,1015.28
2023-04-20T04:31:54.618Z,1015.29
2023-04-20T04:32:54.467Z,1015.33
2023-04-20T04:33:54.452Z,1015.30
2023-04-20T04:34:54.465Z,1015.27
2023-04-20T04:35:54.485Z,1015.29
2023-04-20T04:36:54.486Z,1015.32
2023-04-20T04:37:54.500Z,1015.33
2023-04-20T04:38:54.509Z,1015.30
2023-04-20T04:39:54.528Z,1015.30
2023-04-20T04:40:54.534Z,1015.26
2023-04-20T04:41:54.555Z,1015.25
2023-04-20T04:42:54.558Z,1015.28
2023-04-20T04:43:54.579Z,1015.28
2023-04-20T04:44:54.581Z,1015.33
2023-04-20T04:45:54.591Z,1015.35
2023-04-20T04:46:54.606Z,1015.35
2023-04-20T04:47:54.633Z,1015.35
2023-04-20T04:48:54.634Z,1015.39
2023-04-20T04:49:54.640Z,1015.41
2023-04-20T04:50:54.656Z,1015.42
2023-04-20T04:51:54.667Z,1015.43
2023-04-20T04:52:54.681Z,1015.50
2023-04-20T04:53:54.689Z,1015.53
2023-04-20T04:54:54.704Z,1015.53
2023-04-20T04:55:54.715Z,1015.58
2023-04-20T04:56:54.734Z,1015.53
2023-04-20T04:57:54.741Z,1015.54
2023-04-20T04:58:54.750Z,1015.57
2023-04-20T04:59:54.769Z,1015.59
2023-04-20T05:00:54.782Z,1015.58
2023-04-20T05:01:54.842Z,1015.53
2023-04-20T05:02:54.931Z,1015.51
2023-04-20T05:03:55.110Z,1015.43
2023-04-20T05:04:54.921Z,1015.39
2023-04-20T05:05:54.843Z,1015.41
2023-04-20T05:06:54.855Z,1015.37
2023-04-20T05:07:54.865Z,1015.37
2023-04-20T05:08:54.874Z,1015.43
2023-04-20T05:09:54.882Z,1015.43
2023-04-20T05:10:54.894Z,1015.48
2023-04-20T05:11:54.907Z,1015.44
2023-04-20T05:12:54.917Z,1015.45
2023-04-20T05:13:54.929Z,1015.45
2023-04-20T05:14:54.945Z,1015.45
2023-04-20T05:15:54.994Z,1015.50
2023-04-20T05:16:54.967Z,1015.50
2023-04-20T05:17:55.004Z,1015.54
2023-04-20T05:18:54.997Z,1015.56
2023-04-20T05:19:55.006Z,1015.52
2023-04-20T05:20:55.027Z,1015.55
2023-04-20T05:21:55.028Z,1015.53
2023-04-20T05:22:55.040Z,1015.59
2023-04-20T05:23:55.054Z,1015.58
2023-04-20T05:24:55.065Z,1015.59
2023-04-20T05:25:55.081Z,1015.58
2023-04-20T05:26:55.092Z,1015.61
2023-04-20T05:27:55.103Z,1015.57
2023-04-20T05:28:55.114Z,1015.56
2023-04-20T05:29:55.133Z,1015.52
2023-04-20T05:30:55.158Z,1015.54
2023-04-20T05:31:55.211Z,1015.55
2023-04-20T05:32:55.223Z,1015.56
2023-04-20T05:33:55.180Z,1015.54
2023-04-20T05:34:55.189Z,1015.53
2023-04-20T05:35:55.201Z,1015.58
2023-04-20T05:36:55.215Z,1015.56
2023-04-20T05:37:55.226Z,1015.61
2023-04-20T05:38:55.240Z,1015.62
2023-04-20T05:39:55.254Z,1015.65
2023-04-20T05:40:55.275Z,1015.68
2023-04-20T05:41:55.282Z,1015.72
2023-04-20T05:42:55.298Z,1015.72
2023-04-20T05:43:55.301Z,1015.73
2023-04-20T05:44:55.323Z,1015.71
2023-04-20T05:45:55.384Z,1015.68
2023-04-20T05:46:55.341Z,1015.67
2023-04-20T05:47:55.400Z,1015.73
2023-04-20T05:48:55.377Z,1015.72
2023-04-20T05:49:55.383Z,1015.71
2023-04-20T05:50:55.398Z,1015.70
2023-04-20T05:51:55.403Z,1015.67
2023-04-20T05:52:55.431Z,1015.67
2023-04-20T05:53:55.455Z,1015.68
2023-04-20T05:54:55.455Z,1015.67
2023-04-20T05:55:55.467Z,1015.75
2023-04-20T05:56:55.470Z,1015.72
2023-04-20T05:57:55.494Z,1015.72
2023-04-20T05:58:55.500Z,1015.72
2023-04-20T05:59:55.510Z,1015.73
2023-04-20T06:00:55.526Z,1015.70
2023-04-20T06:01:55.558Z,1015.69
2023-04-20T06:02:55.724Z,1015.76
2023-04-20T06:03:55.745Z,1015.80
2023-04-20T06:04:55.615Z,1015.85
2023-04-20T06:05:55.594Z,1015.89
2023-04-20T06:06:55.602Z,1015.90
2023-04-20T06:07:55.617Z,1015.89
2023-04-20T06:08:55.632Z,1015.89
2023-04-20T06:09:55.645Z,1015.84
2023-04-20T06:10:55.663Z,1015.89
2023-04-20T06:11:55.668Z,1015.92
2023-04-20T06:12:55.683Z,1015.92
2023-04-20T06:13:55.698Z,1015.97
2023-04-20T06:14:55.711Z,1015.95
2023-04-20T06:15:55.767Z,1015.94
2023-04-20T06:16:55.736Z,1015.89
2023-04-20T06:17:55.780Z,1015.91
2023-04-20T06:18:55.763Z,1015.86
2023-04-20T06:19:55.776Z,1015.88
2023-04-20T06:20:55.789Z,1015.97
2023-04-20T06:21:55.815Z,1015.89
2023-04-20T06:22:55.824Z,1015.92
2023-04-20T06:23:55.835Z,1015.93
2023-04-20T06:24:55.842Z,1015.94
2023-04-20T06:25:55.862Z,1015.97
2023-04-20T06:26:55.869Z,1015.97
2023-04-20T06:27:55.890Z,1015.99
2023-04-20T06:28:55.901Z,1015.98
2023-04-20T06:29:55.908Z,1016.04
2023-04-20T06:30:55.949Z,1016.00
2023-04-20T06:31:55.938Z,1015.93
2023-04-20T06:32:55.970Z,1015.91
2023-04-20T06:33:55.976Z,1015.83
2023-04-20T06:34:55.979Z,1015.91
2023-04-20T06:35:55.989Z,1015.93
2023-04-20T06:36:56.002Z,1015.94
2023-04-20T06:37:56.018Z,1015.95
2023-04-20T06:38:56.034Z,1015.98
2023-04-20T06:39:56.044Z,1016.01
2023-04-20T06:40:56.058Z,1016.04
2023-04-20T06:41:56.070Z,1016.03
2023-04-20T06:42:56.089Z,1016.05
2023-04-20T06:43:56.100Z,1016.05
2023-04-20T06:44:56.112Z,1016.03
2023-04-20T06:45:56.129Z,1016.06
2023-04-20T06:46:56.201Z,1016.06
2023-04-20T06:47:56.196Z,1016.07
2023-04-20T06:48:56.177Z,1016.10
2023-04-20T06:49:56.179Z,1016.07
2023-04-20T06:50:56.209Z,1016.05
2023-04-20T06:51:56.204Z,1016.08
2023-04-20T06:52:56.216Z,1016.09
2023-04-20T06:53:56.236Z,1016.09
2023-04-20T06:54:56.245Z,1016.13
2023-04-20T06:55:56.261Z,1016.08
2023-04-20T06:56:56.272Z,1016.08
2023-04-20T06:57:56.297Z,1016.09
2023-04-20T06:58:56.305Z,1016.09
2023-04-20T06:59:56.313Z,1016.04
2023-04-20T07:00:56.328Z,1016.11
2023-04-20T07:01:56.376Z,1016.14
2023-04-20T07:02:56.516Z,1016.16
2023-04-20T07:03:56.630Z,1016.14
2023-04-20T07:04:56.481Z,1016.13
2023-04-20T07:05:56.403Z,1016.13
2023-04-20T07:06:56.412Z,1016.08
2023-04-20T07:07:56.428Z,1016.15
2023-04-20T07:08:56.442Z,1016.23
2023-04-20T07:09:56.461Z,1016.23
2023-04-20T07:10:56.469Z,1016.17
2023-04-20T07:11:56.516Z,1016.18
2023-04-20T07:12:56.513Z,1016.17
2023-04-20T07:13:56.524Z,1016.22
2023-04-20T07:14:56.542Z,1016.20
2023-04-20T07:15:56.578Z,1016.18
2023-04-20T07:16:56.598Z,1016.19
2023-04-20T07:17:56.654Z,1016.16
2023-04-20T07:18:56.601Z,1016.11
2023-04-20T07:19:56.607Z,1016.18
2023-04-20T07:20:56.618Z,1016.27
2023-04-20T07:21:56.630Z,1016.24
2023-04-20T07:22:56.646Z,1016.17
2023-04-20T07:23:56.667Z,1016.23
2023-04-20T07:24:56.693Z,1016.20
2023-04-20T07:25:56.727Z,1016.20
2023-04-20T07:26:56.717Z,1016.18
2023-04-20T07:27:56.721Z,1016.20
2023-04-20T07:28:56.746Z,1016.27
2023-04-20T07:29:56.759Z,1016.32
2023-04-20T07:30:56.801Z,1016.31
2023-04-20T07:31:56.813Z,1016.31
2023-04-20T07:32:56.840Z,1016.36
2023-04-20T07:33:56.948Z,1016.38
2023-04-20T07:34:56.831Z,1016.39
2023-04-20T07:35:56.845Z,1016.47
2023-04-20T07:36:56.862Z,1016.44
2023-04-20T07:37:56.877Z,1016.47
2023-04-20T07:38:56.901Z,1016.48
2023-04-20T07:39:56.909Z,1016.41
2023-04-20T07:40:56.935Z,1016.37
2023-04-20T07:41:56.946Z,1016.34
2023-04-20T07:42:56.957Z,1016.30
2023-04-20T07:43:56.977Z,1016.32
2023-04-20T07:44:56.984Z,1016.34
2023-04-20T07:45:57.064Z,1016.38
2023-04-20T07:46:57.013Z,1016.40
2023-04-20T07:47:57.067Z,1016.43
2023-04-20T07:48:57.053Z,1016.46
2023-04-20T07:49:57.062Z,1016.47
2023-04-20T07:50:57.079Z,1016.46
2023-04-20T07:52:06.035Z,1016.40
2023-04-20T07:52:57.108Z,1016.46
2023-04-20T07:53:57.138Z,1016.45
2023-04-20T07:54:57.144Z,1016.41
2023-04-20T07:55:57.161Z,1016.42
2023-04-20T07:56:57.186Z,1016.48
2023-04-20T07:57:57.190Z,1016.46
2023-04-20T07:58:57.208Z,1016.45
2023-04-20T07:59:57.218Z,1016.44
2023-04-20T08:00:57.245Z,1016.47
2023-04-20T08:01:57.292Z,1016.54
2023-04-20T08:02:57.353Z,1016.67
2023-04-20T08:03:57.553Z,1016.67
2023-04-20T08:04:57.462Z,1016.60
2023-04-20T08:05:57.445Z,1016.51
2023-04-20T08:06:57.327Z,1016.49
2023-04-20T08:07:57.350Z,1016.50
2023-04-20T08:08:57.361Z,1016.47
2023-04-20T08:09:57.384Z,1016.56
2023-04-20T08:10:57.399Z,1016.57
2023-04-20T08:11:57.615Z,1016.57
2023-04-20T08:12:57.437Z,1016.51
2023-04-20T08:13:58.360Z,1016.51
2023-04-20T08:14:57.458Z,1016.45
2023-04-20T08:15:57.514Z,1016.46
2023-04-20T08:16:57.505Z,1016.47
2023-04-20T08:17:57.510Z,1016.48
2023-04-20T08:18:57.521Z,1016.49
2023-04-20T08:19:57.536Z,1016.51
2023-04-20T08:20:57.552Z,1016.52
2023-04-20T08:21:57.567Z,1016.52
2023-04-20T08:22:57.584Z,1016.57
2023-04-20T08:23:57.600Z,1016.56
2023-04-20T08:24:57.622Z,1016.55
2023-04-20T08:25:57.636Z,1016.56
2023-04-20T08:26:57.649Z,1016.56
2023-04-20T08:27:57.668Z,1016.63
2023-04-20T08:28:57.683Z,1016.69
2023-04-20T08:29:57.705Z,1016.69
2023-04-20T08:30:57.735Z,1016.63
2023-04-20T08:31:57.778Z,1016.67
2023-04-20T08:32:57.778Z,1016.68
2023-04-20T08:33:57.769Z,1016.65
2023-04-20T08:34:57.785Z,1016.60
2023-04-20T08:35:57.807Z,1016.60
2023-04-20T08:36:57.833Z,1016.55
2023-04-20T08:37:57.839Z,1016.56
2023-04-20T08:38:57.861Z,1016.53
2023-04-20T08:39:57.885Z,1016.47
2023-04-20T08:40:57.895Z,1016.51
2023-04-20T08:41:57.910Z,1016.50
2023-04-20T08:42:57.929Z,1016.55
2023-04-20T08:43:57.945Z,1016.48
2023-04-20T08:44:57.967Z,1016.51
2023-04-20T08:45:57.987Z,1016.49
2023-04-20T08:46:58.206Z,1016.55
2023-04-20T08:47:58.064Z,1016.56
2023-04-20T08:48:58.033Z,1016.52
2023-04-20T08:49:58.047Z,1016.52
2023-04-20T08:50:58.067Z,1016.58
2023-04-20T08:51:58.084Z,1016.53
2023-04-20T08:52:58.103Z,1016.54
2023-04-20T08:53:58.117Z,1016.52
2023-04-20T08:54:58.210Z,1016.51
2023-04-20T08:55:58.153Z,1016.55
2023-04-20T08:56:58.169Z,1016.54
2023-04-20T08:57:58.183Z,1016.50
2023-04-20T08:58:58.197Z,1016.50
2023-04-20T08:59:58.212Z,1016.51
2023-04-20T09:00:58.230Z,1016.54
2023-04-20T09:01:58.315Z,1016.54
2023-04-20T09:02:58.443Z,1016.57
2023-04-20T09:03:58.467Z,1016.52
2023-04-20T09:04:58.454Z,1016.54
2023-04-20T09:05:58.309Z,1016.55
2023-04-20T09:06:58.324Z,1016.53
2023-04-20T09:07:58.340Z,1016.57
2023-04-20T09:08:58.358Z,1016.60
2023-04-20T09:09:58.384Z,1016.55
2023-04-20T09:10:58.391Z,1016.58
2023-04-20T09:11:58.413Z,1016.49
2023-04-20T09:12:58.422Z,1016.53
2023-04-20T09:13:58.446Z,1016.54
2023-04-20T09:14:58.451Z,1016.56
2023-04-20T09:15:58.476Z,1016.52
2023-04-20T09:16:58.485Z,1016.50
2023-04-20T09:17:58.543Z,1016.54
2023-04-20T09:18:58.519Z,1016.54
2023-04-20T09:19:58.526Z,1016.54
2023-04-20T09:20:58.542Z,1016.55
2023-04-20T09:21:58.561Z,1016.58
2023-04-20T09:22:58.576Z,1016.59
2023-04-20T09:23:58.591Z,1016.60
2023-04-20T09:24:58.600Z,1016.55
2023-04-20T09:25:58.634Z,1016.57
2023-04-20T09:26:58.650Z,1016.59
2023-04-20T09:27:58.651Z,1016.61
2023-04-20T09:28:58.670Z,1016.56
2023-04-20T09:29:58.715Z,1016.59
2023-04-20T09:30:58.703Z,1016.57
2023-04-20T09:31:58.767Z,1016.58
2023-04-20T09:32:58.746Z,1016.55
2023-04-20T09:33:58.741Z,1016.57
2023-04-20T09:34:58.767Z,1016.56
2023-04-20T09:35:58.766Z,1016.63
2023-04-20T09:36:58.786Z,1016.60
2023-04-20T09:37:58.797Z,1016.61
2023-04-20T09:38:58.815Z,1016.61
2023-04-20T09:39:58.827Z,1016.65
2023-04-20T09:40:58.847Z,1016.60
2023-04-20T09:41:58.857Z,1016.63
2023-04-20T09:42:58.880Z,1016.62
2023-04-20T09:43:58.893Z,1016.63
2023-04-20T09:44:58.905Z,1016.57
2023-04-20T09:45:58.973Z,1016.53
2023-04-20T09:46:58.937Z,1016.55
2023-04-20T09:47:58.999Z,1016.50
2023-04-20T09:48:58.965Z,1016.49
2023-04-20T09:50:04.454Z,1016.50
2023-04-20T09:50:59.002Z,1016.55
2023-04-20T09:51:59.017Z,1016.59
2023-04-20T09:52:59.027Z,1016.51
2023-04-20T09:53:59.050Z,1016.56
2023-04-20T09:54:59.055Z,1016.54
2023-04-20T09:55:59.072Z,1016.53
2023-04-20T09:56:59.087Z,1016.54
2023-04-20T09:57:59.107Z,1016.52
2023-04-20T09:58:59.121Z,1016.55
2023-04-20T09:59:59.142Z,1016.50
2023-04-20T10:00:59.164Z,1016.52
2023-04-20T10:01:59.295Z,1016.45
2023-04-20T10:02:59.329Z,1016.56
2023-04-20T10:03:59.558Z,1016.54
2023-04-20T10:04:59.225Z,1016.53
2023-04-20T10:05:59.246Z,1016.58
2023-04-20T10:06:59.252Z,1016.60
2023-04-20T10:07:59.266Z,1016.57
2023-04-20T10:08:59.286Z,1016.55
2023-04-20T10:09:59.304Z,1016.58
2023-04-20T10:10:59.322Z,1016.57
2023-04-20T10:11:59.616Z,1016.61
2023-04-20T10:12:59.360Z,1016.62
2023-04-20T10:13:59.374Z,1016.63
2023-04-20T10:14:59.394Z,1016.58
2023-04-20T10:15:59.437Z,1016.55
2023-04-20T10:16:59.513Z,1016.50
2023-04-20T10:17:59.529Z,1016.44
2023-04-20T10:18:59.508Z,1016.38
2023-04-20T10:19:59.488Z,1016.36
2023-04-20T10:20:59.501Z,1016.37
2023-04-20T10:21:59.521Z,1016.39
2023-04-20T10:22:59.544Z,1016.42
2023-04-20T10:23:59.558Z,1016.43
2023-04-20T10:24:59.616Z,1016.40
2023-04-20T10:25:59.602Z,1016.40
2023-04-20T10:26:59.644Z,1016.45
2023-04-20T10:27:59.654Z,1016.47
2023-04-20T10:28:59.656Z,1016.55
2023-04-20T10:29:59.676Z,1016.50
2023-04-20T10:30:59.793Z,1016.49
2023-04-20T10:31:59.705Z,1016.45
2023-04-20T10:32:59.758Z,1016.47
2023-04-20T10:33:59.754Z,1016.43
2023-04-20T10:34:59.762Z,1016.44
2023-04-20T10:35:59.778Z,1016.45
2023-04-20T10:36:59.801Z,1016.54
2023-04-20T10:37:59.821Z,1016.59
2023-04-20T10:38:59.837Z,1016.58
2023-04-20T10:39:59.878Z,1016.55
2023-04-20T10:40:59.877Z,1016.49
2023-04-20T10:41:59.895Z,1016.32
2023-04-20T10:42:59.912Z,1016.24
2023-04-20T10:43:59.941Z,1016.32
2023-04-20T10:44:59.956Z,1016.34
2023-04-20T10:46:00.065Z,1016.33
2023-04-20T10:46:59.992Z,1016.33
2023-04-20T10:48:00.064Z,1016.22
2023-04-20T10:49:00.037Z,1016.19
2023-04-20T10:50:00.063Z,1016.12
2023-04-20T10:51:00.073Z,1016.14
2023-04-20T10:52:00.096Z,1016.13
2023-04-20T10:53:00.162Z,1016.08
2023-04-20T10:54:00.136Z,1016.02
2023-04-20T10:55:00.155Z,1016.01
2023-04-20T10:56:00.200Z,1016.02
2023-04-20T10:57:00.198Z,1016.02
2023-04-20T10:58:00.215Z,1016.05
2023-04-20T10:59:02.292Z,1016.03
2023-04-20T11:00:00.283Z,1016.02
2023-04-20T11:01:00.269Z,1016.03
2023-04-20T11:02:00.389Z,1016.03
2023-04-20T11:03:00.393Z,1016.02
2023-04-20T11:04:00.384Z,1016.05
2023-04-20T11:05:00.412Z,1016.04
2023-04-20T11:06:00.378Z,1016.03
2023-04-20T11:07:00.396Z,1016.06
2023-04-20T11:08:00.415Z,1016.06
2023-04-20T11:09:00.432Z,1016.08
2023-04-20T11:10:00.460Z,1016.07
2023-04-20T11:11:00.472Z,1016.10
2023-04-20T11:12:00.491Z,1016.14
2023-04-20T11:13:00.516Z,1016.16
2023-04-20T11:14:00.534Z,1016.19
2023-04-20T11:15:00.599Z,1016.22
2023-04-20T11:16:00.610Z,1016.21
2023-04-20T11:17:00.624Z,1016.26
2023-04-20T11:18:00.704Z,1016.34
2023-04-20T11:19:00.642Z,1016.28
2023-04-20T11:20:00.651Z,1016.30
2023-04-20T11:21:00.671Z,1016.25
2023-04-20T11:22:00.694Z,1016.30
2023-04-20T11:23:00.716Z,1016.33
2023-04-20T11:24:00.738Z,1016.26
2023-04-20T11:25:00.751Z,1016.21
2023-04-20T11:26:00.780Z,1016.17
2023-04-20T11:27:00.793Z,1016.11
2023-04-20T11:28:00.813Z,1016.06
2023-04-20T11:29:00.881Z,1016.04
2023-04-20T11:30:00.849Z,1016.05
2023-04-20T11:31:00.874Z,1016.02
2023-04-20T11:32:00.986Z,1016.04
2023-04-20T11:33:01.046Z,1016.06
2023-04-20T11:34:00.949Z,1016.04
2023-04-20T11:35:06.392Z,1016.03
2023-04-20T11:36:01.008Z,1016.00
2023-04-20T11:37:00.990Z,1015.98
2023-04-20T11:38:01.013Z,1015.99
2023-04-20T11:39:01.027Z,1016.01
2023-04-20T11:40:01.059Z,1015.99
2023-04-20T11:41:01.071Z,1016.05
2023-04-20T11:42:01.090Z,1016.04
2023-04-20T11:43:01.110Z,1015.99
2023-04-20T11:44:01.126Z,1015.93
2023-04-20T11:45:01.145Z,1015.93
2023-04-20T11:46:01.225Z,1015.90
2023-04-20T11:47:01.182Z,1015.97
2023-04-20T11:48:01.227Z,1015.90
2023-04-20T11:49:01.221Z,1015.83
2023-04-20T11:50:01.237Z,1015.84
2023-04-20T11:51:01.257Z,1015.87
2023-04-20T11:52:01.282Z,1015.92
2023-04-20T11:53:01.293Z,1015.88
2023-04-20T11:54:01.318Z,1015.83
2023-04-20T11:55:01.333Z,1015.87
2023-04-20T11:56:01.358Z,1015.86
2023-04-20T11:57:01.383Z,1015.83
2023-04-20T11:58:01.383Z,1015.82
2023-04-20T11:59:01.411Z,1015.78
2023-04-20T12:00:01.434Z,1015.87
2023-04-20T12:01:01.455Z,1015.83
2023-04-20T12:02:01.567Z,1015.87
2023-04-20T12:03:01.574Z,1015.85
2023-04-20T12:04:01.864Z,1015.88
2023-04-20T12:05:01.601Z,1015.79
2023-04-20T12:06:01.549Z,1015.73